sensor_id;sensor_type;location;lat;lon;timestamp;P1;durP1;ratioP1;P2;durP2;ratioP2
36715;SDS011;22699;51.034;3.730;2023-05-10T00:01:26;18.63;;;12.77;;
36715;SDS011;22699;51.034;3.730;2023-05-10T00:06:22;23.63;;;12.25;;
36715;SDS011;22699;51.034;3.730;2023-05-10T00:08:49;23.15;;;13.63;;
36715;SDS011;22699;51.034;3.730;2023-05-10T00:11:18;22.08;;;12.55;;
36715;SDS011;22699;51.034;3.730;2023-05-10T00:13:45;24.50;;;12.60;;
36715;SDS011;22699;51.034;3.730;2023-05-10T00:16:12;23.00;;;13.38;;
36715;SDS011;22699;51.034;3.730;2023-05-10T00:18:39;18.05;;;12.68;;
36715;SDS011;22699;51.034;3.730;2023-05-10T00:21:04;19.58;;;12.88;;
36715;SDS011;22699;51.034;3.730;2023-05-10T00:23:31;19.52;;;13.27;;
36715;SDS011;22699;51.034;3.730;2023-05-10T00:25:58;21.98;;;13.63;;
36715;SDS011;22699;51.034;3.730;2023-05-10T00:30:59;22.83;;;14.88;;
36715;SDS011;22699;51.034;3.730;2023-05-10T00:33:28;25.98;;;15.35;;
36715;SDS011;22699;51.034;3.730;2023-05-10T00:35:53;22.85;;;15.90;;
36715;SDS011;22699;51.034;3.730;2023-05-10T00:43:18;27.38;;;17.35;;
36715;SDS011;22699;51.034;3.730;2023-05-10T00:45:43;22.00;;;15.95;;
36715;SDS011;22699;51.034;3.730;2023-05-10T00:48:09;23.88;;;17.13;;
36715;SDS011;22699;51.034;3.730;2023-05-10T00:50:39;26.05;;;16.83;;
36715;SDS011;22699;51.034;3.730;2023-05-10T00:53:05;28.95;;;16.88;;
36715;SDS011;22699;51.034;3.730;2023-05-10T00:55:33;24.65;;;17.80;;
36715;SDS011;22699;51.034;3.730;2023-05-10T00:58:01;28.75;;;17.95;;
36715;SDS011;22699;51.034;3.730;2023-05-10T01:00:27;29.88;;;19.42;;
36715;SDS011;22699;51.034;3.730;2023-05-10T01:02:56;28.98;;;18.20;;
36715;SDS011;22699;51.034;3.730;2023-05-10T01:05:23;28.02;;;19.60;;
36715;SDS011;22699;51.034;3.730;2023-05-10T01:07:48;28.25;;;20.90;;
36715;SDS011;22699;51.034;3.730;2023-05-10T01:12:46;31.67;;;20.98;;
36715;SDS011;22699;51.034;3.730;2023-05-10T01:15:12;34.15;;;22.58;;
36715;SDS011;22699;51.034;3.730;2023-05-10T01:17:43;31.05;;;22.20;;
36715;SDS011;22699;51.034;3.730;2023-05-10T01:20:12;34.05;;;22.58;;
36715;SDS011;22699;51.034;3.730;2023-05-10T01:22:50;34.33;;;24.13;;
36715;SDS011;22699;51.034;3.730;2023-05-10T01:25:31;31.88;;;23.73;;
36715;SDS011;22699;51.034;3.730;2023-05-10T01:34:12;36.30;;;25.48;;
36715;SDS011;22699;51.034;3.730;2023-05-10T01:36:47;33.33;;;23.45;;
36715;SDS011;22699;51.034;3.730;2023-05-10T01:39:20;34.97;;;23.42;;
36715;SDS011;22699;51.034;3.730;2023-05-10T01:47:31;35.70;;;24.92;;
36715;SDS011;22699;51.034;3.730;2023-05-10T01:50:15;36.70;;;25.13;;
36715;SDS011;22699;51.034;3.730;2023-05-10T01:52:47;33.72;;;24.45;;
36715;SDS011;22699;51.034;3.730;2023-05-10T01:55:28;33.67;;;24.33;;
36715;SDS011;22699;51.034;3.730;2023-05-10T01:58:06;31.85;;;23.13;;
36715;SDS011;22699;51.034;3.730;2023-05-10T02:00:43;34.30;;;23.98;;
36715;SDS011;22699;51.034;3.730;2023-05-10T02:05:44;33.45;;;23.48;;
36715;SDS011;22699;51.034;3.730;2023-05-10T02:08:14;32.33;;;22.13;;
36715;SDS011;22699;51.034;3.730;2023-05-10T02:13:15;32.47;;;22.20;;
36715;SDS011;22699;51.034;3.730;2023-05-10T02:15:50;31.77;;;21.48;;
36715;SDS011;22699;51.034;3.730;2023-05-10T02:18:18;30.65;;;21.33;;
36715;SDS011;22699;51.034;3.730;2023-05-10T02:20:50;30.40;;;20.75;;
36715;SDS011;22699;51.034;3.730;2023-05-10T02:23:19;30.55;;;20.40;;
36715;SDS011;22699;51.034;3.730;2023-05-10T02:25:46;29.15;;;20.23;;
36715;SDS011;22699;51.034;3.730;2023-05-10T02:28:17;32.15;;;20.65;;
36715;SDS011;22699;51.034;3.730;2023-05-10T02:30:44;31.70;;;19.40;;
36715;SDS011;22699;51.034;3.730;2023-05-10T02:33:13;31.98;;;20.63;;
36715;SDS011;22699;51.034;3.730;2023-05-10T02:35:43;29.08;;;20.45;;
36715;SDS011;22699;51.034;3.730;2023-05-10T02:38:18;27.73;;;19.50;;
36715;SDS011;22699;51.034;3.730;2023-05-10T02:40:48;27.42;;;19.67;;
36715;SDS011;22699;51.034;3.730;2023-05-10T02:43:16;26.20;;;17.77;;
36715;SDS011;22699;51.034;3.730;2023-05-10T02:45:46;29.80;;;19.83;;
36715;SDS011;22699;51.034;3.730;2023-05-10T02:48:13;29.45;;;18.23;;
36715;SDS011;22699;51.034;3.730;2023-05-10T02:50:41;28.35;;;19.63;;
36715;SDS011;22699;51.034;3.730;2023-05-10T02:53:10;25.23;;;18.42;;
36715;SDS011;22699;51.034;3.730;2023-05-10T02:55:40;23.75;;;17.30;;
36715;SDS011;22699;51.034;3.730;2023-05-10T02:58:07;27.70;;;18.63;;
36715;SDS011;22699;51.034;3.730;2023-05-10T03:05:51;26.67;;;19.92;;
36715;SDS011;22699;51.034;3.730;2023-05-10T03:17:29;24.38;;;17.80;;
36715;SDS011;22699;51.034;3.730;2023-05-10T03:22:39;26.50;;;19.40;;
36715;SDS011;22699;51.034;3.730;2023-05-10T03:25:10;22.85;;;16.33;;
36715;SDS011;22699;51.034;3.730;2023-05-10T03:27:39;24.48;;;17.02;;
36715;SDS011;22699;51.034;3.730;2023-05-10T03:30:08;25.20;;;16.73;;
36715;SDS011;22699;51.034;3.730;2023-05-10T03:32:38;25.80;;;17.88;;
36715;SDS011;22699;51.034;3.730;2023-05-10T03:35:12;23.15;;;17.80;;
36715;SDS011;22699;51.034;3.730;2023-05-10T03:37:40;25.88;;;18.30;;
36715;SDS011;22699;51.034;3.730;2023-05-10T03:40:07;27.13;;;19.25;;
36715;SDS011;22699;51.034;3.730;2023-05-10T03:42:38;31.48;;;19.58;;
36715;SDS011;22699;51.034;3.730;2023-05-10T03:45:04;30.63;;;21.20;;
36715;SDS011;22699;51.034;3.730;2023-05-10T03:47:34;28.83;;;17.92;;
36715;SDS011;22699;51.034;3.730;2023-05-10T03:50:00;22.50;;;17.30;;
36715;SDS011;22699;51.034;3.730;2023-05-10T03:52:27;25.55;;;17.73;;
36715;SDS011;22699;51.034;3.730;2023-05-10T03:54:53;27.92;;;19.73;;
36715;SDS011;22699;51.034;3.730;2023-05-10T03:57:22;28.27;;;19.85;;
36715;SDS011;22699;51.034;3.730;2023-05-10T03:59:49;28.33;;;19.67;;
36715;SDS011;22699;51.034;3.730;2023-05-10T04:02:16;27.83;;;20.05;;
36715;SDS011;22699;51.034;3.730;2023-05-10T04:04:42;28.92;;;18.88;;
36715;SDS011;22699;51.034;3.730;2023-05-10T04:07:11;30.00;;;19.58;;
36715;SDS011;22699;51.034;3.730;2023-05-10T04:09:42;31.00;;;19.85;;
36715;SDS011;22699;51.034;3.730;2023-05-10T04:12:08;31.70;;;22.38;;
36715;SDS011;22699;51.034;3.730;2023-05-10T04:14:35;29.67;;;21.33;;
36715;SDS011;22699;51.034;3.730;2023-05-10T04:17:01;29.80;;;21.27;;
36715;SDS011;22699;51.034;3.730;2023-05-10T04:19:31;32.45;;;21.80;;
36715;SDS011;22699;51.034;3.730;2023-05-10T04:22:05;36.33;;;22.83;;
36715;SDS011;22699;51.034;3.730;2023-05-10T04:24:32;34.97;;;23.67;;
36715;SDS011;22699;51.034;3.730;2023-05-10T04:26:58;34.55;;;23.05;;
36715;SDS011;22699;51.034;3.730;2023-05-10T04:29:29;37.10;;;24.27;;
36715;SDS011;22699;51.034;3.730;2023-05-10T04:31:56;36.97;;;22.13;;
36715;SDS011;22699;51.034;3.730;2023-05-10T04:34:23;40.70;;;25.20;;
36715;SDS011;22699;51.034;3.730;2023-05-10T04:36:49;34.65;;;24.65;;
36715;SDS011;22699;51.034;3.730;2023-05-10T04:41:43;29.65;;;22.00;;
36715;SDS011;22699;51.034;3.730;2023-05-10T04:44:10;35.33;;;24.38;;
36715;SDS011;22699;51.034;3.730;2023-05-10T04:46:37;33.30;;;23.20;;
36715;SDS011;22699;51.034;3.730;2023-05-10T04:49:03;42.15;;;25.10;;
36715;SDS011;22699;51.034;3.730;2023-05-10T04:51:29;34.50;;;25.27;;
36715;SDS011;22699;51.034;3.730;2023-05-10T04:53:56;34.10;;;23.92;;
36715;SDS011;22699;51.034;3.730;2023-05-10T04:56:23;33.75;;;23.90;;
36715;SDS011;22699;51.034;3.730;2023-05-10T04:58:57;41.70;;;27.08;;
36715;SDS011;22699;51.034;3.730;2023-05-10T05:01:29;39.30;;;25.77;;
36715;SDS011;22699;51.034;3.730;2023-05-10T05:03:55;34.65;;;23.58;;
36715;SDS011;22699;51.034;3.730;2023-05-10T05:06:23;40.03;;;24.77;;
36715;SDS011;22699;51.034;3.730;2023-05-10T05:08:50;39.22;;;25.73;;
36715;SDS011;22699;51.034;3.730;2023-05-10T05:11:16;38.47;;;26.73;;
36715;SDS011;22699;51.034;3.730;2023-05-10T05:13:44;39.55;;;26.13;;
36715;SDS011;22699;51.034;3.730;2023-05-10T05:16:13;38.78;;;24.95;;
36715;SDS011;22699;51.034;3.730;2023-05-10T05:18:39;38.22;;;25.23;;
36715;SDS011;22699;51.034;3.730;2023-05-10T05:23:41;36.03;;;24.75;;
36715;SDS011;22699;51.034;3.730;2023-05-10T05:26:14;35.35;;;25.42;;
36715;SDS011;22699;51.034;3.730;2023-05-10T05:28:44;36.13;;;25.17;;
36715;SDS011;22699;51.034;3.730;2023-05-10T05:31:09;39.05;;;25.23;;
36715;SDS011;22699;51.034;3.730;2023-05-10T05:33:37;37.20;;;24.83;;
36715;SDS011;22699;51.034;3.730;2023-05-10T05:36:03;34.60;;;25.48;;
36715;SDS011;22699;51.034;3.730;2023-05-10T05:38:30;34.83;;;25.77;;
36715;SDS011;22699;51.034;3.730;2023-05-10T05:40:59;38.08;;;26.88;;
36715;SDS011;22699;51.034;3.730;2023-05-10T05:43:35;42.88;;;26.83;;
36715;SDS011;22699;51.034;3.730;2023-05-10T05:49:17;44.03;;;30.05;;
36715;SDS011;22699;51.034;3.730;2023-05-10T05:51:44;48.15;;;33.38;;
36715;SDS011;22699;51.034;3.730;2023-05-10T05:54:10;45.22;;;29.67;;
36715;SDS011;22699;51.034;3.730;2023-05-10T05:56:38;37.15;;;27.90;;
36715;SDS011;22699;51.034;3.730;2023-05-10T05:59:04;40.03;;;26.55;;
36715;SDS011;22699;51.034;3.730;2023-05-10T06:01:33;43.55;;;28.38;;
36715;SDS011;22699;51.034;3.730;2023-05-10T06:04:00;41.97;;;28.77;;
36715;SDS011;22699;51.034;3.730;2023-05-10T06:06:26;42.33;;;29.42;;
36715;SDS011;22699;51.034;3.730;2023-05-10T06:08:52;41.78;;;27.85;;
36715;SDS011;22699;51.034;3.730;2023-05-10T06:13:55;46.63;;;29.25;;
36715;SDS011;22699;51.034;3.730;2023-05-10T06:16:23;41.40;;;28.98;;
36715;SDS011;22699;51.034;3.730;2023-05-10T06:18:55;40.15;;;26.13;;
36715;SDS011;22699;51.034;3.730;2023-05-10T06:21:22;44.40;;;29.52;;
36715;SDS011;22699;51.034;3.730;2023-05-10T06:23:48;42.92;;;27.70;;
36715;SDS011;22699;51.034;3.730;2023-05-10T06:26:16;47.58;;;27.83;;
36715;SDS011;22699;51.034;3.730;2023-05-10T06:28:42;46.08;;;28.50;;
36715;SDS011;22699;51.034;3.730;2023-05-10T06:31:07;42.80;;;28.27;;
36715;SDS011;22699;51.034;3.730;2023-05-10T06:33:33;45.88;;;28.67;;
36715;SDS011;22699;51.034;3.730;2023-05-10T06:36:00;50.80;;;28.85;;
36715;SDS011;22699;51.034;3.730;2023-05-10T06:38:27;46.22;;;28.13;;
36715;SDS011;22699;51.034;3.730;2023-05-10T06:40:54;44.97;;;29.45;;
36715;SDS011;22699;51.034;3.730;2023-05-10T06:43:26;47.53;;;30.08;;
36715;SDS011;22699;51.034;3.730;2023-05-10T06:45:54;46.45;;;29.58;;
36715;SDS011;22699;51.034;3.730;2023-05-10T06:50:49;48.75;;;30.25;;
36715;SDS011;22699;51.034;3.730;2023-05-10T06:53:14;47.22;;;29.67;;
36715;SDS011;22699;51.034;3.730;2023-05-10T06:55:40;43.67;;;30.02;;
36715;SDS011;22699;51.034;3.730;2023-05-10T06:58:06;46.15;;;29.88;;
36715;SDS011;22699;51.034;3.730;2023-05-10T07:00:31;46.80;;;29.50;;
36715;SDS011;22699;51.034;3.730;2023-05-10T07:02:57;44.80;;;29.05;;
36715;SDS011;22699;51.034;3.730;2023-05-10T07:05:23;40.08;;;27.38;;
36715;SDS011;22699;51.034;3.730;2023-05-10T07:07:49;43.60;;;28.35;;
36715;SDS011;22699;51.034;3.730;2023-05-10T07:10:15;43.60;;;27.80;;
36715;SDS011;22699;51.034;3.730;2023-05-10T07:12:40;43.15;;;27.48;;
36715;SDS011;22699;51.034;3.730;2023-05-10T07:15:07;40.22;;;27.30;;
36715;SDS011;22699;51.034;3.730;2023-05-10T07:17:33;46.25;;;28.05;;
36715;SDS011;22699;51.034;3.730;2023-05-10T07:19:59;39.72;;;27.52;;
36715;SDS011;22699;51.034;3.730;2023-05-10T07:22:25;39.13;;;26.15;;
36715;SDS011;22699;51.034;3.730;2023-05-10T07:24:51;39.95;;;25.48;;
36715;SDS011;22699;51.034;3.730;2023-05-10T07:27:16;35.67;;;26.92;;
36715;SDS011;22699;51.034;3.730;2023-05-10T07:29:42;42.28;;;27.02;;
36715;SDS011;22699;51.034;3.730;2023-05-10T07:32:08;38.45;;;24.83;;
36715;SDS011;22699;51.034;3.730;2023-05-10T07:34:35;41.90;;;25.67;;
36715;SDS011;22699;51.034;3.730;2023-05-10T07:37:01;33.72;;;24.55;;
36715;SDS011;22699;51.034;3.730;2023-05-10T07:39:27;36.90;;;24.17;;
36715;SDS011;22699;51.034;3.730;2023-05-10T07:41:53;36.05;;;23.17;;
36715;SDS011;22699;51.034;3.730;2023-05-10T07:44:21;37.88;;;25.08;;
36715;SDS011;22699;51.034;3.730;2023-05-10T07:46:46;35.05;;;24.10;;
36715;SDS011;22699;51.034;3.730;2023-05-10T07:49:13;39.25;;;24.73;;
36715;SDS011;22699;51.034;3.730;2023-05-10T07:51:38;39.45;;;23.63;;
36715;SDS011;22699;51.034;3.730;2023-05-10T07:54:04;33.88;;;24.13;;
36715;SDS011;22699;51.034;3.730;2023-05-10T07:56:31;32.38;;;24.20;;
36715;SDS011;22699;51.034;3.730;2023-05-10T07:59:00;34.83;;;23.83;;
36715;SDS011;22699;51.034;3.730;2023-05-10T08:01:32;33.03;;;22.60;;
36715;SDS011;22699;51.034;3.730;2023-05-10T08:03:58;32.92;;;22.10;;
36715;SDS011;22699;51.034;3.730;2023-05-10T08:06:25;33.67;;;23.55;;
36715;SDS011;22699;51.034;3.730;2023-05-10T08:08:53;33.78;;;24.60;;
36715;SDS011;22699;51.034;3.730;2023-05-10T08:11:22;32.28;;;23.33;;
36715;SDS011;22699;51.034;3.730;2023-05-10T08:13:48;35.85;;;25.33;;
36715;SDS011;22699;51.034;3.730;2023-05-10T08:16:16;35.58;;;23.15;;
36715;SDS011;22699;51.034;3.730;2023-05-10T08:18:42;35.72;;;25.17;;
36715;SDS011;22699;51.034;3.730;2023-05-10T08:21:10;38.10;;;24.52;;
36715;SDS011;22699;51.034;3.730;2023-05-10T08:23:36;39.22;;;25.60;;
36715;SDS011;22699;51.034;3.730;2023-05-10T08:26:02;35.25;;;24.55;;
36715;SDS011;22699;51.034;3.730;2023-05-10T08:28:28;39.95;;;23.30;;
36715;SDS011;22699;51.034;3.730;2023-05-10T08:30:54;35.40;;;23.23;;
36715;SDS011;22699;51.034;3.730;2023-05-10T08:33:19;32.67;;;20.58;;
36715;SDS011;22699;51.034;3.730;2023-05-10T08:35:45;36.28;;;22.08;;
36715;SDS011;22699;51.034;3.730;2023-05-10T08:38:11;31.40;;;20.92;;
36715;SDS011;22699;51.034;3.730;2023-05-10T08:40:40;31.50;;;21.02;;
36715;SDS011;22699;51.034;3.730;2023-05-10T08:43:08;27.63;;;19.35;;
36715;SDS011;22699;51.034;3.730;2023-05-10T08:45:36;33.75;;;21.63;;
36715;SDS011;22699;51.034;3.730;2023-05-10T08:48:09;28.23;;;18.03;;
36715;SDS011;22699;51.034;3.730;2023-05-10T08:50:35;27.60;;;18.55;;
36715;SDS011;22699;51.034;3.730;2023-05-10T08:53:04;31.10;;;18.63;;
36715;SDS011;22699;51.034;3.730;2023-05-10T08:55:38;32.00;;;19.88;;
36715;SDS011;22699;51.034;3.730;2023-05-10T08:58:05;27.20;;;18.10;;
36715;SDS011;22699;51.034;3.730;2023-05-10T09:00:32;27.17;;;18.60;;
36715;SDS011;22699;51.034;3.730;2023-05-10T09:02:59;28.38;;;19.27;;
36715;SDS011;22699;51.034;3.730;2023-05-10T09:05:27;28.90;;;18.92;;
36715;SDS011;22699;51.034;3.730;2023-05-10T09:07:54;29.33;;;17.95;;
36715;SDS011;22699;51.034;3.730;2023-05-10T09:10:23;28.25;;;18.27;;
36715;SDS011;22699;51.034;3.730;2023-05-10T09:12:53;32.38;;;18.85;;
36715;SDS011;22699;51.034;3.730;2023-05-10T09:15:21;31.80;;;19.42;;
36715;SDS011;22699;51.034;3.730;2023-05-10T09:17:49;25.98;;;18.00;;
36715;SDS011;22699;51.034;3.730;2023-05-10T09:20:18;28.67;;;18.23;;
36715;SDS011;22699;51.034;3.730;2023-05-10T09:22:45;24.52;;;15.48;;
36715;SDS011;22699;51.034;3.730;2023-05-10T09:25:14;27.08;;;17.75;;
36715;SDS011;22699;51.034;3.730;2023-05-10T09:30:24;24.10;;;17.33;;
36715;SDS011;22699;51.034;3.730;2023-05-10T09:32:54;26.13;;;15.98;;
36715;SDS011;22699;51.034;3.730;2023-05-10T09:35:30;21.00;;;15.95;;
36715;SDS011;22699;51.034;3.730;2023-05-10T09:37:59;23.27;;;14.93;;
36715;SDS011;22699;51.034;3.730;2023-05-10T09:40:34;22.05;;;15.80;;
36715;SDS011;22699;51.034;3.730;2023-05-10T09:43:03;21.38;;;14.70;;
36715;SDS011;22699;51.034;3.730;2023-05-10T09:45:32;24.48;;;15.00;;
36715;SDS011;22699;51.034;3.730;2023-05-10T09:48:07;25.67;;;14.55;;
36715;SDS011;22699;51.034;3.730;2023-05-10T09:50:55;20.08;;;14.25;;
36715;SDS011;22699;51.034;3.730;2023-05-10T09:53:26;17.52;;;13.30;;
36715;SDS011;22699;51.034;3.730;2023-05-10T09:55:58;20.08;;;13.02;;
36715;SDS011;22699;51.034;3.730;2023-05-10T09:58:26;17.52;;;13.18;;
36715;SDS011;22699;51.034;3.730;2023-05-10T10:00:52;17.02;;;13.07;;
36715;SDS011;22699;51.034;3.730;2023-05-10T10:03:25;21.13;;;13.55;;
36715;SDS011;22699;51.034;3.730;2023-05-10T10:05:51;18.95;;;13.77;;
36715;SDS011;22699;51.034;3.730;2023-05-10T10:08:18;21.20;;;12.85;;
36715;SDS011;22699;51.034;3.730;2023-05-10T10:10:51;20.27;;;13.52;;
36715;SDS011;22699;51.034;3.730;2023-05-10T10:13:23;18.77;;;12.27;;
36715;SDS011;22699;51.034;3.730;2023-05-10T10:18:20;15.57;;;12.57;;
36715;SDS011;22699;51.034;3.730;2023-05-10T10:21:06;18.23;;;13.35;;
36715;SDS011;22699;51.034;3.730;2023-05-10T10:23:36;18.23;;;12.48;;
36715;SDS011;22699;51.034;3.730;2023-05-10T10:26:08;22.92;;;14.52;;
36715;SDS011;22699;51.034;3.730;2023-05-10T10:34:34;17.98;;;12.70;;
36715;SDS011;22699;51.034;3.730;2023-05-10T10:37:13;17.23;;;12.57;;
36715;SDS011;22699;51.034;3.730;2023-05-10T10:39:45;18.52;;;12.88;;
36715;SDS011;22699;51.034;3.730;2023-05-10T10:45:39;15.60;;;12.20;;
36715;SDS011;22699;51.034;3.730;2023-05-10T10:50:58;19.35;;;12.65;;
36715;SDS011;22699;51.034;3.730;2023-05-10T10:53:26;18.30;;;12.45;;
36715;SDS011;22699;51.034;3.730;2023-05-10T10:56:09;18.23;;;13.77;;
36715;SDS011;22699;51.034;3.730;2023-05-10T10:58:48;22.45;;;13.75;;
36715;SDS011;22699;51.034;3.730;2023-05-10T11:01:18;17.13;;;12.50;;
36715;SDS011;22699;51.034;3.730;2023-05-10T11:06:36;15.18;;;12.55;;
36715;SDS011;22699;51.034;3.730;2023-05-10T11:09:12;18.60;;;12.55;;
36715;SDS011;22699;51.034;3.730;2023-05-10T11:14:20;15.15;;;12.93;;
36715;SDS011;22699;51.034;3.730;2023-05-10T11:16:50;17.67;;;14.40;;
36715;SDS011;22699;51.034;3.730;2023-05-10T11:19:17;20.95;;;14.68;;
36715;SDS011;22699;51.034;3.730;2023-05-10T11:21:52;23.58;;;16.65;;
36715;SDS011;22699;51.034;3.730;2023-05-10T11:24:37;25.50;;;17.05;;
36715;SDS011;22699;51.034;3.730;2023-05-10T11:27:03;26.85;;;19.40;;
36715;SDS011;22699;51.034;3.730;2023-05-10T11:29:29;25.23;;;18.48;;
36715;SDS011;22699;51.034;3.730;2023-05-10T11:31:59;31.20;;;19.83;;
36715;SDS011;22699;51.034;3.730;2023-05-10T11:34:26;26.42;;;19.70;;
36715;SDS011;22699;51.034;3.730;2023-05-10T11:37:02;28.70;;;21.42;;
36715;SDS011;22699;51.034;3.730;2023-05-10T11:42:09;22.63;;;19.27;;
36715;SDS011;22699;51.034;3.730;2023-05-10T11:47:06;23.25;;;19.02;;
36715;SDS011;22699;51.034;3.730;2023-05-10T11:49:33;22.70;;;19.55;;
36715;SDS011;22699;51.034;3.730;2023-05-10T11:52:08;24.17;;;19.85;;
36715;SDS011;22699;51.034;3.730;2023-05-10T11:54:37;22.85;;;19.83;;
36715;SDS011;22699;51.034;3.730;2023-05-10T11:57:37;25.20;;;21.42;;
36715;SDS011;22699;51.034;3.730;2023-05-10T12:02:39;25.77;;;21.02;;
36715;SDS011;22699;51.034;3.730;2023-05-10T12:07:36;19.85;;;17.75;;
36715;SDS011;22699;51.034;3.730;2023-05-10T12:10:17;20.00;;;17.55;;
36715;SDS011;22699;51.034;3.730;2023-05-10T12:13:21;23.80;;;17.05;;
36715;SDS011;22699;51.034;3.730;2023-05-10T12:16:11;20.95;;;16.98;;
36715;SDS011;22699;51.034;3.730;2023-05-10T12:18:47;20.95;;;16.92;;
36715;SDS011;22699;51.034;3.730;2023-05-10T12:21:14;23.55;;;18.20;;
36715;SDS011;22699;51.034;3.730;2023-05-10T12:23:41;21.50;;;16.50;;
36715;SDS011;22699;51.034;3.730;2023-05-10T12:26:10;24.10;;;17.42;;
36715;SDS011;22699;51.034;3.730;2023-05-10T12:28:36;20.27;;;17.90;;
36715;SDS011;22699;51.034;3.730;2023-05-10T12:31:03;18.50;;;16.10;;
36715;SDS011;22699;51.034;3.730;2023-05-10T12:33:39;21.40;;;15.57;;
36715;SDS011;22699;51.034;3.730;2023-05-10T12:36:09;21.65;;;16.35;;
36715;SDS011;22699;51.034;3.730;2023-05-10T12:38:43;23.80;;;17.00;;
36715;SDS011;22699;51.034;3.730;2023-05-10T12:41:15;21.00;;;15.68;;
36715;SDS011;22699;51.034;3.730;2023-05-10T12:43:44;21.53;;;17.53;;
36715;SDS011;22699;51.034;3.730;2023-05-10T12:46:16;24.38;;;18.33;;
36715;SDS011;22699;51.034;3.730;2023-05-10T12:48:43;27.20;;;18.95;;
36715;SDS011;22699;51.034;3.730;2023-05-10T12:51:11;21.90;;;16.50;;
36715;SDS011;22699;51.034;3.730;2023-05-10T12:53:38;25.00;;;17.90;;
36715;SDS011;22699;51.034;3.730;2023-05-10T12:56:06;24.35;;;19.45;;
36715;SDS011;22699;51.034;3.730;2023-05-10T12:58:33;23.00;;;17.45;;
36715;SDS011;22699;51.034;3.730;2023-05-10T13:01:00;24.83;;;18.33;;
36715;SDS011;22699;51.034;3.730;2023-05-10T13:03:25;20.38;;;16.88;;
36715;SDS011;22699;51.034;3.730;2023-05-10T13:08:29;21.73;;;17.75;;
36715;SDS011;22699;51.034;3.730;2023-05-10T13:11:01;24.73;;;18.95;;
36715;SDS011;22699;51.034;3.730;2023-05-10T13:13:28;26.48;;;19.88;;
36715;SDS011;22699;51.034;3.730;2023-05-10T13:15:54;23.25;;;18.52;;
36715;SDS011;22699;51.034;3.730;2023-05-10T13:18:20;21.27;;;15.93;;
36715;SDS011;22699;51.034;3.730;2023-05-10T13:20:46;18.38;;;13.77;;
36715;SDS011;22699;51.034;3.730;2023-05-10T13:23:11;19.08;;;14.73;;
36715;SDS011;22699;51.034;3.730;2023-05-10T13:28:06;13.63;;;11.35;;
36715;SDS011;22699;51.034;3.730;2023-05-10T13:30:32;18.27;;;13.75;;
36715;SDS011;22699;51.034;3.730;2023-05-10T13:32:58;18.50;;;14.02;;
36715;SDS011;22699;51.034;3.730;2023-05-10T13:35:23;22.35;;;14.82;;
36715;SDS011;22699;51.034;3.730;2023-05-10T13:37:49;20.85;;;15.80;;
36715;SDS011;22699;51.034;3.730;2023-05-10T13:40:15;25.90;;;16.98;;
36715;SDS011;22699;51.034;3.730;2023-05-10T13:42:40;21.73;;;18.15;;
36715;SDS011;22699;51.034;3.730;2023-05-10T13:45:07;22.85;;;17.30;;
36715;SDS011;22699;51.034;3.730;2023-05-10T13:47:34;24.92;;;18.30;;
36715;SDS011;22699;51.034;3.730;2023-05-10T13:50:00;20.52;;;16.73;;
36715;SDS011;22699;51.034;3.730;2023-05-10T13:52:26;24.52;;;18.70;;
36715;SDS011;22699;51.034;3.730;2023-05-10T13:54:51;26.10;;;17.90;;
36715;SDS011;22699;51.034;3.730;2023-05-10T13:57:19;23.95;;;17.63;;
36715;SDS011;22699;51.034;3.730;2023-05-10T13:59:45;27.98;;;18.88;;
36715;SDS011;22699;51.034;3.730;2023-05-10T14:02:11;24.92;;;17.25;;
36715;SDS011;22699;51.034;3.730;2023-05-10T14:04:39;27.13;;;19.33;;
36715;SDS011;22699;51.034;3.730;2023-05-10T14:07:04;27.55;;;18.77;;
36715;SDS011;22699;51.034;3.730;2023-05-10T14:09:32;25.48;;;18.48;;
36715;SDS011;22699;51.034;3.730;2023-05-10T14:12:00;25.17;;;19.10;;
36715;SDS011;22699;51.034;3.730;2023-05-10T14:14:25;27.33;;;19.88;;
36715;SDS011;22699;51.034;3.730;2023-05-10T14:16:51;24.65;;;17.38;;
36715;SDS011;22699;51.034;3.730;2023-05-10T14:19:18;27.50;;;18.73;;
36715;SDS011;22699;51.034;3.730;2023-05-10T14:21:47;22.58;;;17.40;;
36715;SDS011;22699;51.034;3.730;2023-05-10T14:24:14;25.85;;;17.85;;
36715;SDS011;22699;51.034;3.730;2023-05-10T14:26:41;24.38;;;17.95;;
36715;SDS011;22699;51.034;3.730;2023-05-10T14:29:07;24.83;;;18.40;;
36715;SDS011;22699;51.034;3.730;2023-05-10T14:31:35;26.80;;;18.90;;
36715;SDS011;22699;51.034;3.730;2023-05-10T14:34:02;22.08;;;15.63;;
36715;SDS011;22699;51.034;3.730;2023-05-10T14:36:29;22.17;;;17.38;;
36715;SDS011;22699;51.034;3.730;2023-05-10T14:38:54;21.00;;;15.50;;
36715;SDS011;22699;51.034;3.730;2023-05-10T14:41:21;20.23;;;15.57;;
36715;SDS011;22699;51.034;3.730;2023-05-10T14:43:49;26.25;;;16.38;;
36715;SDS011;22699;51.034;3.730;2023-05-10T14:46:15;22.35;;;15.43;;
36715;SDS011;22699;51.034;3.730;2023-05-10T14:48:41;27.60;;;12.98;;
36715;SDS011;22699;51.034;3.730;2023-05-10T14:51:08;24.13;;;13.80;;
36715;SDS011;22699;51.034;3.730;2023-05-10T14:53:34;24.73;;;13.77;;
36715;SDS011;22699;51.034;3.730;2023-05-10T14:56:01;24.92;;;15.13;;
36715;SDS011;22699;51.034;3.730;2023-05-10T14:58:29;22.88;;;14.27;;
36715;SDS011;22699;51.034;3.730;2023-05-10T15:00:55;18.73;;;13.52;;
36715;SDS011;22699;51.034;3.730;2023-05-10T15:03:21;19.02;;;11.50;;
36715;SDS011;22699;51.034;3.730;2023-05-10T15:05:48;19.67;;;11.35;;
36715;SDS011;22699;51.034;3.730;2023-05-10T15:08:14;16.38;;;9.82;;
36715;SDS011;22699;51.034;3.730;2023-05-10T15:10:41;14.88;;;9.35;;
36715;SDS011;22699;51.034;3.730;2023-05-10T15:13:10;16.33;;;9.60;;
36715;SDS011;22699;51.034;3.730;2023-05-10T15:18:06;16.15;;;9.45;;
36715;SDS011;22699;51.034;3.730;2023-05-10T15:20:36;16.05;;;8.07;;
36715;SDS011;22699;51.034;3.730;2023-05-10T15:23:02;17.42;;;8.15;;
36715;SDS011;22699;51.034;3.730;2023-05-10T15:25:30;17.52;;;6.88;;
36715;SDS011;22699;51.034;3.730;2023-05-10T15:28:03;16.03;;;7.03;;
36715;SDS011;22699;51.034;3.730;2023-05-10T15:30:29;12.40;;;6.07;;
36715;SDS011;22699;51.034;3.730;2023-05-10T15:33:05;13.52;;;6.28;;
36715;SDS011;22699;51.034;3.730;2023-05-10T15:35:49;15.15;;;6.75;;
36715;SDS011;22699;51.034;3.730;2023-05-10T15:38:23;14.15;;;6.75;;
36715;SDS011;22699;51.034;3.730;2023-05-10T15:40:48;10.35;;;5.43;;
36715;SDS011;22699;51.034;3.730;2023-05-10T15:43:21;14.13;;;5.15;;
36715;SDS011;22699;51.034;3.730;2023-05-10T15:46:04;14.18;;;5.80;;
36715;SDS011;22699;51.034;3.730;2023-05-10T15:48:30;12.48;;;5.00;;
36715;SDS011;22699;51.034;3.730;2023-05-10T15:54:18;12.45;;;4.80;;
36715;SDS011;22699;51.034;3.730;2023-05-10T15:59:35;11.73;;;4.63;;
36715;SDS011;22699;51.034;3.730;2023-05-10T16:04:57;12.73;;;4.88;;
36715;SDS011;22699;51.034;3.730;2023-05-10T17:22:35;13.38;;;5.20;;
36715;SDS011;22699;51.034;3.730;2023-05-10T17:25:01;13.82;;;5.00;;
36715;SDS011;22699;51.034;3.730;2023-05-10T17:27:28;16.80;;;4.72;;
36715;SDS011;22699;51.034;3.730;2023-05-10T17:30:01;18.50;;;5.28;;
36715;SDS011;22699;51.034;3.730;2023-05-10T17:32:29;11.32;;;4.95;;
36715;SDS011;22699;51.034;3.730;2023-05-10T17:34:59;15.13;;;5.32;;
36715;SDS011;22699;51.034;3.730;2023-05-10T17:37:25;16.58;;;4.85;;